Pays
Station

 

Conditions  météo  pour  Springbok  -  Afrique Du Sud    Afrique Du Sud

  
22 °C
    
 
 

METAR pour Springbok :

FASB 170952Z 01006KT CAVOK 22/M04 Q1025

 

Voici le bulletin pour Springbok - Afrique Du Sud.
 
Le bulletin a été fait il y a 23 heures et 12 minutes, à 09:52 UTC .
Le vent soufflait à la vitesse de 3.1 mètres par seconde de Nord (010°).
 
La température était de 22 °C, avec un point de rosée à -4 °C.
La température ressentie était de 23 °C.
 
La pression atmosphérique était de 1025 hPa.
L'humidité relative était de 17.2%.
 
Il y avait pas de nuages en-dessous de 1500 mètres et pas de cumulonimbus.
 
La visibilité globale était de supérieure à 10 kilomètres.
 

 
 
 

Pays :   A   B   C   D   E   F   G   H   I   J   K   L   M   N   O   P   Q   R   S   T   U   V   W   Y   Z

 

Partenaires :  Info Météo avec Met'info
Météo Marine avec MeteoMarine.net
Infos Site  |  Infos Légales  |  Crédits  |  Confidentialité
Contactez-nous  |  Ajouter aux favoris
© 2013-2019 METAR - Tous droits réservés